createdAt,value
2022-11-02T00:01:14.020Z,7.10
2022-11-02T00:03:42.070Z,6.40
2022-11-02T00:06:11.423Z,7.00
2022-11-02T00:08:39.442Z,6.40
2022-11-02T00:11:07.538Z,5.47
2022-11-02T00:13:35.581Z,6.17
2022-11-02T00:16:05.146Z,6.73
2022-11-02T00:18:35.103Z,7.23
2022-11-02T00:21:03.403Z,6.60
2022-11-02T00:23:33.353Z,6.03
2022-11-02T00:26:04.369Z,6.83
2022-11-02T00:28:32.438Z,7.00
2022-11-02T00:31:00.446Z,6.63
2022-11-02T00:33:28.458Z,6.80
2022-11-02T00:35:56.845Z,6.10
2022-11-02T00:38:24.765Z,6.23
2022-11-02T00:40:54.118Z,6.07
2022-11-02T00:43:22.055Z,6.00
2022-11-02T00:45:50.053Z,6.53
2022-11-02T00:48:18.061Z,6.07
2022-11-02T00:50:46.007Z,6.67
2022-11-02T00:53:14.017Z,6.20
2022-11-02T00:55:42.005Z,6.97
2022-11-02T00:58:11.402Z,7.87
2022-11-02T01:00:39.466Z,6.43
2022-11-02T01:03:07.524Z,7.70
2022-11-02T01:05:35.486Z,7.23
2022-11-02T01:08:03.697Z,7.07
2022-11-02T01:10:31.923Z,7.90
2022-11-02T01:12:59.923Z,7.70
2022-11-02T01:15:29.520Z,6.43
2022-11-02T01:17:57.524Z,5.27
2022-11-02T01:20:25.671Z,5.43
2022-11-02T01:22:53.667Z,6.13
2022-11-02T01:25:21.636Z,6.40
2022-11-02T01:27:49.571Z,5.23
2022-11-02T01:30:17.776Z,6.00
2022-11-02T01:32:47.177Z,6.57
2022-11-02T01:35:16.744Z,6.77
2022-11-02T01:37:44.807Z,6.63
2022-11-02T01:40:13.465Z,6.53
2022-11-02T01:42:41.433Z,6.47
2022-11-02T01:45:11.682Z,6.87
2022-11-02T01:47:43.889Z,6.80
2022-11-02T01:50:18.308Z,6.73
2022-11-02T01:52:46.322Z,5.93
2022-11-02T01:55:19.425Z,5.50
2022-11-02T01:57:50.376Z,5.87
2022-11-02T02:00:20.005Z,5.17
2022-11-02T02:02:53.552Z,5.10
2022-11-02T02:05:25.370Z,4.80
2022-11-02T02:07:54.778Z,4.57
2022-11-02T02:10:22.879Z,4.00
2022-11-02T02:12:51.524Z,4.60
2022-11-02T02:15:21.346Z,4.83
2022-11-02T02:17:57.071Z,5.00
2022-11-02T02:20:43.542Z,4.40
2022-11-02T02:23:40.550Z,5.03
2022-11-02T02:26:34.321Z,4.60
2022-11-02T02:29:06.396Z,4.10
2022-11-02T02:31:38.073Z,4.00
2022-11-02T02:34:12.631Z,4.50
2022-11-02T02:39:21.701Z,4.40
2022-11-02T02:41:59.400Z,4.30
2022-11-02T02:44:34.350Z,4.50
2022-11-02T02:47:06.042Z,3.60
2022-11-02T02:49:39.131Z,3.93
2022-11-02T02:52:09.015Z,4.53
2022-11-02T02:54:43.289Z,4.53
2022-11-02T02:57:14.153Z,4.30
2022-11-02T02:59:45.023Z,4.83
2022-11-02T03:02:18.078Z,4.70
2022-11-02T03:04:46.392Z,5.57
2022-11-02T03:07:18.016Z,5.10
2022-11-02T03:09:51.145Z,5.30
2022-11-02T03:12:26.900Z,5.20
2022-11-02T03:15:10.801Z,4.90
2022-11-02T03:17:48.472Z,4.67
2022-11-02T03:20:24.813Z,5.00
2022-11-02T03:23:06.034Z,5.20
2022-11-02T03:25:45.217Z,5.57
2022-11-02T03:28:19.335Z,6.10
2022-11-02T03:30:53.610Z,4.57
2022-11-02T03:33:27.248Z,3.90
2022-11-02T03:35:58.877Z,4.97
2022-11-02T03:38:35.225Z,3.43
2022-11-02T03:41:06.001Z,4.00
2022-11-02T03:43:35.816Z,4.10
2022-11-02T03:46:08.705Z,4.40
2022-11-02T03:48:41.750Z,4.60
2022-11-02T03:51:14.704Z,3.90
2022-11-02T03:53:48.616Z,4.37
2022-11-02T03:56:22.524Z,4.50
2022-11-02T03:58:50.923Z,3.70
2022-11-02T04:01:21.909Z,4.30
2022-11-02T04:03:50.352Z,3.70
2022-11-02T04:06:18.435Z,4.60
2022-11-02T04:08:49.953Z,4.37
2022-11-02T04:11:35.601Z,4.30
2022-11-02T04:14:21.107Z,4.33
2022-11-02T04:16:50.558Z,3.90
2022-11-02T04:19:29.908Z,4.40
2022-11-02T04:22:15.802Z,3.90
2022-11-02T04:25:01.688Z,5.17
2022-11-02T04:27:30.083Z,4.40
2022-11-02T04:29:58.126Z,4.30
2022-11-02T04:32:45.104Z,4.23
2022-11-02T04:35:13.401Z,4.20
2022-11-02T04:37:59.505Z,4.27
2022-11-02T04:40:27.832Z,3.90
2022-11-02T04:42:54.865Z,4.53
2022-11-02T04:45:22.977Z,3.30
2022-11-02T04:47:52.451Z,4.40
2022-11-02T04:50:20.641Z,4.60
2022-11-02T04:52:48.683Z,4.37
2022-11-02T04:55:16.960Z,4.80
2022-11-02T04:57:46.600Z,4.70
2022-11-02T05:00:16.509Z,4.60
2022-11-02T05:02:44.661Z,4.43
2022-11-02T05:05:14.536Z,4.70
2022-11-02T05:07:43.670Z,4.90
2022-11-02T05:10:12.461Z,5.33
2022-11-02T05:12:41.383Z,4.77
2022-11-02T05:15:10.266Z,3.70
2022-11-02T05:17:38.315Z,3.60
2022-11-02T05:20:08.748Z,4.07
2022-11-02T05:22:38.214Z,3.60
2022-11-02T05:25:07.092Z,4.67
2022-11-02T05:27:35.418Z,3.90
2022-11-02T05:30:04.153Z,3.30
2022-11-02T05:32:32.484Z,3.57
2022-11-02T05:35:00.573Z,4.20
2022-11-02T05:37:28.842Z,3.20
2022-11-02T05:39:58.808Z,3.80
2022-11-02T05:42:27.043Z,4.07
2022-11-02T05:44:55.372Z,3.50
2022-11-02T05:47:23.460Z,3.70
2022-11-02T05:49:51.496Z,3.57
2022-11-02T05:52:19.747Z,3.53
2022-11-02T05:54:48.237Z,2.90
2022-11-02T05:57:19.252Z,3.43
2022-11-02T05:59:49.530Z,2.80
2022-11-02T06:02:19.846Z,3.70
2022-11-02T06:04:50.034Z,3.30
2022-11-02T06:07:18.259Z,3.23
2022-11-02T06:09:46.572Z,3.07
2022-11-02T06:12:17.658Z,3.40
2022-11-02T06:14:47.248Z,3.13
2022-11-02T06:17:15.371Z,3.10
2022-11-02T06:19:43.831Z,3.47
2022-11-02T06:22:12.104Z,2.90
2022-11-02T06:24:40.423Z,3.80
2022-11-02T06:27:08.481Z,3.90
2022-11-02T06:29:36.538Z,3.03
2022-11-02T06:32:06.690Z,3.57
2022-11-02T06:34:34.656Z,3.30
2022-11-02T06:37:02.794Z,3.50
2022-11-02T06:39:30.865Z,3.17
2022-11-02T06:41:59.318Z,3.60
2022-11-02T06:44:27.417Z,3.00
2022-11-02T06:46:55.653Z,3.03
2022-11-02T06:49:25.651Z,2.80
2022-11-02T06:51:54.336Z,3.17
2022-11-02T06:54:22.483Z,2.40
2022-11-02T06:56:50.692Z,2.83
2022-11-02T06:59:18.764Z,2.03
2022-11-02T07:01:54.378Z,2.40
2022-11-02T07:04:24.135Z,2.70
2022-11-02T07:06:52.370Z,2.70
2022-11-02T07:09:20.577Z,2.63
2022-11-02T07:11:48.680Z,2.57
2022-11-02T07:14:16.691Z,2.53
2022-11-02T07:16:45.028Z,3.30
2022-11-02T07:19:13.040Z,2.50
2022-11-02T07:21:45.046Z,2.83
2022-11-02T07:24:15.635Z,2.27
2022-11-02T07:26:43.743Z,2.70
2022-11-02T07:29:11.763Z,2.10
2022-11-02T07:31:39.938Z,1.83
2022-11-02T07:34:10.636Z,1.80
2022-11-02T07:36:42.345Z,2.43
2022-11-02T07:39:10.505Z,2.77
2022-11-02T07:41:38.672Z,2.80
2022-11-02T07:44:06.774Z,2.17
2022-11-02T07:46:35.057Z,2.30
2022-11-02T07:49:03.048Z,2.00
2022-11-02T07:51:31.073Z,2.63
2022-11-02T07:54:01.508Z,2.60
2022-11-02T07:56:29.726Z,2.13
2022-11-02T07:58:57.734Z,2.60
2022-11-02T08:01:25.801Z,2.60
2022-11-02T08:03:54.737Z,1.87
2022-11-02T08:06:22.842Z,2.10
2022-11-02T08:08:50.874Z,2.10
2022-11-02T08:11:20.317Z,1.93
2022-11-02T08:16:16.732Z,2.30
2022-11-02T08:18:45.459Z,2.93
2022-11-02T08:21:13.836Z,2.03
2022-11-02T08:23:42.002Z,2.50
2022-11-02T08:26:10.218Z,2.50
2022-11-02T08:28:41.258Z,3.03
2022-11-02T08:31:15.932Z,2.37
2022-11-02T08:33:44.342Z,1.80
2022-11-02T08:36:12.658Z,1.87
2022-11-02T08:38:41.638Z,2.50
2022-11-02T08:41:09.862Z,2.90
2022-11-02T08:43:39.324Z,2.27
2022-11-02T08:46:16.632Z,2.30
2022-11-02T08:48:46.010Z,3.47
2022-11-02T08:51:14.307Z,3.27
2022-11-02T08:53:44.653Z,2.20
2022-11-02T08:56:15.323Z,1.93
2022-11-02T08:58:44.735Z,2.10
2022-11-02T09:01:12.741Z,2.60
2022-11-02T09:03:42.269Z,2.10
2022-11-02T09:06:16.063Z,2.13
2022-11-02T09:08:44.163Z,2.40
2022-11-02T09:11:12.607Z,2.67
2022-11-02T09:13:40.674Z,3.40
2022-11-02T09:16:10.422Z,3.40
2022-11-02T09:18:39.001Z,1.90
2022-11-02T09:21:07.390Z,2.63
2022-11-02T09:23:35.383Z,2.20
2022-11-02T09:26:03.597Z,3.20
2022-11-02T09:28:31.665Z,2.67
2022-11-02T09:30:59.857Z,2.27
2022-11-02T09:33:29.902Z,3.10
2022-11-02T09:36:02.640Z,2.40
2022-11-02T09:38:30.981Z,3.70
2022-11-02T09:41:07.167Z,1.80
2022-11-02T09:43:46.387Z,2.40
2022-11-02T09:46:20.295Z,7.73
2022-11-02T09:48:53.234Z,2.17
2022-11-02T09:51:23.575Z,3.20
2022-11-02T09:54:03.584Z,1.67
2022-11-02T09:56:32.251Z,1.90
2022-11-02T09:59:03.848Z,2.13
2022-11-02T10:01:55.772Z,1.20
2022-11-02T10:04:49.553Z,2.67
2022-11-02T10:07:30.893Z,1.57
2022-11-02T10:10:01.922Z,1.67
2022-11-02T10:12:38.537Z,1.90
2022-11-02T10:15:13.660Z,2.00
2022-11-02T10:17:43.365Z,1.67
2022-11-02T10:20:22.759Z,2.07
2022-11-02T10:22:50.847Z,2.50
2022-11-02T10:25:19.112Z,1.90
2022-11-02T10:27:51.325Z,2.80
2022-11-02T10:30:22.047Z,2.13
2022-11-02T10:32:53.928Z,2.20
2022-11-02T10:35:41.061Z,2.80
2022-11-02T10:38:29.931Z,1.80
2022-11-02T10:41:14.723Z,2.17
2022-11-02T10:44:00.395Z,1.80
2022-11-02T10:46:42.039Z,1.90
2022-11-02T10:49:15.912Z,2.00
2022-11-02T10:51:45.397Z,2.20
2022-11-02T10:54:18.641Z,1.40
2022-11-02T10:56:50.875Z,1.90
2022-11-02T10:59:20.223Z,1.30
2022-11-02T11:02:05.222Z,1.70
2022-11-02T11:04:34.454Z,2.07
2022-11-02T11:07:14.468Z,1.57
2022-11-02T11:09:49.791Z,1.87
2022-11-02T11:12:22.432Z,1.70
2022-11-02T11:20:37.469Z,2.40
2022-11-02T11:23:19.768Z,1.90
2022-11-02T11:26:03.151Z,1.50
2022-11-02T11:28:33.763Z,1.33
2022-11-02T11:31:14.333Z,1.83
2022-11-02T11:33:44.587Z,2.20
2022-11-02T11:36:21.633Z,1.93
2022-11-02T11:38:52.263Z,1.07
2022-11-02T11:41:21.045Z,1.50
2022-11-02T11:43:50.855Z,2.60
2022-11-02T11:46:19.139Z,2.00
2022-11-02T11:48:50.832Z,1.73
2022-11-02T11:51:31.800Z,2.00
2022-11-02T11:54:20.991Z,1.20
2022-11-02T11:56:50.028Z,1.57
2022-11-02T11:59:26.499Z,1.70
2022-11-02T12:02:00.240Z,1.70
2022-11-02T12:04:31.123Z,1.83
2022-11-02T12:07:13.958Z,1.83
2022-11-02T12:09:50.882Z,2.57
2022-11-02T12:12:28.585Z,2.20
2022-11-02T12:15:10.231Z,1.63
2022-11-02T12:17:52.983Z,2.20
2022-11-02T12:20:54.569Z,2.17
2022-11-02T12:23:36.104Z,1.80
2022-11-02T12:26:18.852Z,2.30
2022-11-02T12:29:03.863Z,3.03
2022-11-02T12:31:37.833Z,1.97
2022-11-02T12:34:27.167Z,2.70
2022-11-02T12:40:09.048Z,2.07
2022-11-02T12:42:45.956Z,2.47
2022-11-02T12:45:27.564Z,1.33
2022-11-02T12:47:59.001Z,1.80
2022-11-02T12:50:45.302Z,1.97
2022-11-02T12:53:41.666Z,1.00
2022-11-02T12:56:15.016Z,2.10
2022-11-02T12:58:45.291Z,1.50
2022-11-02T13:01:27.578Z,1.47
2022-11-02T13:04:01.080Z,1.83
2022-11-02T13:06:35.223Z,1.63
2022-11-02T13:09:09.212Z,1.80
2022-11-02T13:11:41.577Z,2.10
2022-11-02T13:14:15.865Z,2.50
2022-11-02T13:16:50.160Z,1.90
2022-11-02T13:19:21.796Z,2.00
2022-11-02T13:21:55.224Z,1.57
2022-11-02T13:24:31.724Z,2.20
2022-11-02T13:27:14.441Z,2.10
2022-11-02T13:29:52.948Z,1.93
2022-11-02T13:32:33.598Z,1.40
2022-11-02T13:35:07.386Z,1.60
2022-11-02T13:37:40.081Z,2.50
2022-11-02T13:40:16.679Z,1.93
2022-11-02T13:43:07.372Z,2.13
2022-11-02T13:46:04.604Z,1.60
2022-11-02T13:48:53.620Z,2.47
2022-11-02T13:51:30.181Z,1.20
2022-11-02T13:54:03.927Z,1.57
2022-11-02T13:56:36.953Z,1.87
2022-11-02T13:59:07.414Z,1.57
2022-11-02T14:01:41.524Z,2.13
2022-11-02T14:04:12.086Z,1.97
2022-11-02T14:06:51.936Z,1.90
2022-11-02T14:09:27.878Z,1.80
2022-11-02T14:12:27.754Z,1.80
2022-11-02T14:15:35.310Z,2.70
2022-11-02T14:18:16.221Z,2.03
2022-11-02T14:20:48.956Z,1.87
2022-11-02T14:23:40.772Z,2.07
2022-11-02T14:26:53.796Z,1.90
2022-11-02T14:29:52.024Z,1.67
2022-11-02T14:32:27.098Z,1.90
2022-11-02T14:35:15.317Z,1.83
2022-11-02T14:38:00.817Z,1.80
2022-11-02T14:40:34.817Z,1.90
2022-11-02T14:43:47.554Z,2.40
2022-11-02T14:46:27.598Z,2.47
2022-11-02T14:48:58.090Z,1.37
2022-11-02T14:51:29.863Z,2.00
2022-11-02T14:54:00.368Z,1.90
2022-11-02T14:56:50.552Z,2.23
2022-11-02T14:59:21.418Z,2.30
2022-11-02T15:01:57.610Z,2.00
2022-11-02T15:04:27.762Z,1.63
2022-11-02T15:07:00.627Z,1.73
2022-11-02T15:09:55.060Z,2.40
2022-11-02T15:12:31.016Z,2.33
2022-11-02T15:15:27.608Z,1.63
2022-11-02T15:18:21.748Z,2.30
2022-11-02T15:21:23.220Z,2.00
2022-11-02T15:24:04.001Z,2.53
2022-11-02T15:26:41.746Z,1.90
2022-11-02T15:29:21.071Z,2.43
2022-11-02T15:31:55.997Z,2.73
2022-11-02T15:34:31.627Z,2.77
2022-11-02T15:37:01.290Z,2.17
2022-11-02T15:39:31.780Z,1.90
2022-11-02T15:42:05.310Z,2.70
2022-11-02T15:44:55.513Z,2.13
2022-11-02T15:47:34.240Z,2.27
2022-11-02T15:50:21.214Z,3.20
2022-11-02T15:53:23.372Z,3.07
2022-11-02T15:56:09.059Z,2.10
2022-11-02T15:59:06.118Z,3.20
2022-11-02T16:01:34.311Z,2.60
2022-11-02T16:04:05.938Z,1.90
2022-11-02T16:06:38.003Z,3.70
2022-11-02T16:09:30.936Z,3.07
2022-11-02T16:12:11.068Z,2.40
2022-11-02T16:14:39.537Z,3.00
2022-11-02T16:17:19.345Z,3.10
2022-11-02T16:19:49.235Z,2.77
2022-11-02T16:22:27.773Z,3.17
2022-11-02T16:24:57.115Z,3.10
2022-11-02T16:27:26.571Z,3.00
2022-11-02T16:29:54.745Z,3.17
2022-11-02T16:32:25.307Z,4.30
2022-11-02T16:34:53.979Z,3.20
2022-11-02T16:37:23.663Z,3.10
2022-11-02T16:39:54.858Z,3.07
2022-11-02T16:42:34.570Z,3.47
2022-11-02T16:45:05.130Z,3.57
2022-11-02T16:47:38.783Z,3.40
2022-11-02T16:50:20.608Z,3.67
2022-11-02T16:52:56.427Z,3.87
2022-11-02T16:55:39.147Z,3.83
2022-11-02T16:58:10.538Z,5.10
2022-11-02T17:00:40.193Z,5.40
2022-11-02T17:03:10.776Z,4.27
2022-11-02T17:05:41.803Z,5.60
2022-11-02T17:08:28.292Z,3.60
2022-11-02T17:10:58.286Z,4.37
2022-11-02T17:13:27.797Z,3.83
2022-11-02T17:16:02.894Z,4.93
2022-11-02T17:18:31.175Z,3.97
2022-11-02T17:21:32.498Z,4.33
2022-11-02T17:24:34.540Z,3.90
2022-11-02T17:27:18.280Z,4.70
2022-11-02T17:29:46.413Z,5.10
2022-11-02T17:32:17.913Z,4.90
2022-11-02T17:34:57.564Z,4.73
2022-11-02T17:37:27.776Z,5.33
2022-11-02T17:40:00.964Z,4.93
2022-11-02T17:42:46.944Z,5.07
2022-11-02T17:45:24.936Z,5.70
2022-11-02T17:47:53.715Z,4.73
2022-11-02T17:50:21.907Z,5.13
2022-11-02T17:52:50.799Z,3.50
2022-11-02T17:55:22.256Z,4.03
2022-11-02T17:57:50.629Z,4.77
2022-11-02T18:00:19.532Z,3.10
2022-11-02T18:02:50.830Z,4.30
2022-11-02T18:05:24.587Z,5.17
2022-11-02T18:07:53.157Z,5.40
2022-11-02T18:10:24.716Z,5.30
2022-11-02T18:12:53.400Z,4.97
2022-11-02T18:15:23.516Z,5.90
2022-11-02T18:17:52.202Z,7.00
2022-11-02T18:20:21.337Z,6.20
2022-11-02T18:22:49.385Z,6.50
2022-11-02T18:27:53.708Z,6.03
2022-11-02T18:30:21.992Z,5.97
2022-11-02T18:32:50.562Z,6.17
2022-11-02T18:35:21.401Z,5.60
2022-11-02T18:37:49.909Z,5.13
2022-11-02T18:40:19.896Z,6.23
2022-11-02T18:42:54.273Z,5.87
2022-11-02T18:45:23.907Z,6.90
2022-11-02T18:47:51.924Z,6.80
2022-11-02T18:50:20.173Z,6.57
2022-11-02T18:52:49.896Z,6.67
2022-11-02T18:55:18.206Z,6.60
2022-11-02T18:57:46.564Z,5.40
2022-11-02T19:00:15.950Z,5.97
2022-11-02T19:02:45.438Z,4.70
2022-11-02T19:05:27.370Z,4.97
2022-11-02T19:08:12.803Z,5.13
2022-11-02T19:10:41.842Z,4.00
2022-11-02T19:13:09.914Z,5.67
2022-11-02T19:15:42.406Z,3.93
2022-11-02T19:18:12.236Z,5.40
2022-11-02T19:20:42.324Z,4.90
2022-11-02T19:23:10.893Z,5.07
2022-11-02T19:25:39.315Z,4.80
2022-11-02T19:28:07.562Z,4.03
2022-11-02T19:30:38.857Z,4.17
2022-11-02T19:33:07.473Z,4.30
2022-11-02T19:35:37.098Z,3.77
2022-11-02T19:38:05.244Z,4.60
2022-11-02T19:40:33.860Z,4.77
2022-11-02T19:43:02.076Z,4.80
2022-11-02T19:45:30.236Z,4.83
2022-11-02T19:47:58.898Z,4.23
2022-11-02T19:50:27.114Z,4.37
2022-11-02T19:52:56.953Z,3.87
2022-11-02T19:55:29.373Z,4.10
2022-11-02T19:57:57.839Z,3.80
2022-11-02T20:00:26.007Z,3.50
2022-11-02T20:02:54.046Z,3.70
2022-11-02T20:05:22.331Z,3.60
2022-11-02T20:07:51.983Z,2.90
2022-11-02T20:10:23.933Z,4.30
2022-11-02T20:12:52.116Z,4.30
2022-11-02T20:15:35.286Z,4.80
2022-11-02T20:18:18.955Z,6.27
2022-11-02T20:20:50.453Z,6.13
2022-11-02T20:23:21.224Z,5.50
2022-11-02T20:25:50.821Z,6.63
2022-11-02T20:28:29.545Z,6.47
2022-11-02T20:31:12.362Z,5.77
2022-11-02T20:33:49.052Z,5.20
2022-11-02T20:36:24.063Z,5.10
2022-11-02T20:39:09.891Z,4.80
2022-11-02T20:41:42.116Z,4.50
2022-11-02T20:44:21.974Z,4.90
2022-11-02T20:47:04.572Z,6.00
2022-11-02T20:49:50.047Z,5.43
2022-11-02T20:52:34.208Z,5.30
2022-11-02T20:55:11.694Z,5.10
2022-11-02T20:57:42.355Z,4.50
2022-11-02T21:00:20.347Z,4.33
2022-11-02T21:02:52.969Z,3.53
2022-11-02T21:05:24.273Z,4.43
2022-11-02T21:08:06.073Z,3.90
2022-11-02T21:10:43.252Z,4.30
2022-11-02T21:13:33.751Z,4.90
2022-11-02T21:16:08.539Z,6.50
2022-11-02T21:18:36.703Z,11.60
2022-11-02T21:21:06.256Z,15.30
2022-11-02T21:23:34.877Z,17.67
2022-11-02T21:26:05.591Z,12.10
2022-11-02T21:31:07.483Z,6.43
2022-11-02T21:33:36.407Z,4.90
2022-11-02T21:36:05.664Z,5.17
2022-11-02T21:38:34.088Z,4.50
2022-11-02T21:41:04.380Z,4.23
2022-11-02T21:43:36.024Z,4.63
2022-11-02T21:46:05.931Z,4.60
2022-11-02T21:48:36.925Z,4.23
2022-11-02T21:51:08.359Z,4.47
2022-11-02T21:53:38.548Z,4.50
2022-11-02T21:56:08.958Z,4.50
2022-11-02T21:58:44.617Z,4.30
2022-11-02T22:01:33.636Z,4.80
2022-11-02T22:04:02.388Z,5.33
2022-11-02T22:06:31.707Z,4.93
2022-11-02T22:09:01.309Z,4.70
2022-11-02T22:11:30.189Z,5.10
2022-11-02T22:14:01.060Z,4.70
2022-11-02T22:16:31.946Z,5.07
2022-11-02T22:19:01.563Z,5.80
2022-11-02T22:21:31.761Z,5.23
2022-11-02T22:24:00.715Z,6.10
2022-11-02T22:26:30.516Z,5.70
2022-11-02T22:29:01.256Z,6.10
2022-11-02T22:31:31.047Z,7.13
2022-11-02T22:34:01.032Z,6.07
2022-11-02T22:36:31.356Z,5.83
2022-11-02T22:39:00.828Z,6.97
2022-11-02T22:41:30.276Z,6.90
2022-11-02T22:44:02.912Z,6.53
2022-11-02T22:46:32.332Z,5.60
2022-11-02T22:49:02.654Z,5.60
2022-11-02T22:51:33.668Z,6.00
2022-11-02T22:54:02.590Z,6.30
2022-11-02T22:56:31.367Z,5.70
2022-11-02T22:59:01.171Z,5.37
2022-11-02T23:01:31.184Z,5.57
2022-11-02T23:04:01.230Z,4.87
2022-11-02T23:06:29.874Z,4.60
2022-11-02T23:08:59.671Z,4.87
2022-11-02T23:11:30.232Z,6.20
2022-11-02T23:14:01.627Z,5.50
2022-11-02T23:16:31.274Z,5.80
2022-11-02T23:19:25.357Z,4.33
2022-11-02T23:22:10.605Z,4.97
2022-11-02T23:24:58.179Z,5.63
2022-11-02T23:27:26.973Z,5.57
2022-11-02T23:30:14.689Z,6.27
2022-11-02T23:32:43.282Z,5.87
2022-11-02T23:35:29.515Z,5.70
2022-11-02T23:38:05.217Z,5.50
2022-11-02T23:40:33.811Z,6.93
2022-11-02T23:43:03.384Z,5.03
2022-11-02T23:45:32.953Z,5.10
2022-11-02T23:48:06.000Z,6.00
2022-11-02T23:50:51.584Z,5.10
2022-11-02T23:53:39.007Z,5.77
2022-11-02T23:56:31.006Z,5.30
2022-11-02T23:59:07.321Z,4.70
